Time;durP1;ratioP1;P1;durP2;ratioP2;P2;SDS_P1;SDS_P2;PMS_P1;PMS_P2;Temp;Humidity;BMP_temperature;BMP_pressure;BME280_temperature;BME280_humidity;BME280_pressure;Samples;Min_cycle;Max_cycle;Signal;HPM_P1;HPM_P2
2022/06/12 00:01:24;;;;;;;8.15;5.57;;;;;;;11.79;100.00;96180.78;5027860;28;20045;-75
2022/06/12 00:03:49;;;;;;;12.10;5.78;;;;;;;11.81;100.00;96183.97;5020514;28;20065;-74
2022/06/12 00:06:18;;;;;;;10.13;5.75;;;;;;;11.82;100.00;96175.00;5022703;28;20127;-75
2022/06/12 00:08:44;;;;;;;13.30;5.68;;;;;;;11.78;100.00;96174.75;5015081;28;20042;-75
2022/06/12 00:11:12;;;;;;;8.55;5.47;;;;;;;11.73;100.00;96182.63;5027917;28;20126;-75
2022/06/12 00:13:46;;;;;;;10.48;5.78;;;;;;;11.70;100.00;96177.09;5022296;28;20454;-75
2022/06/12 00:16:13;;;;;;;15.20;6.27;;;;;;;11.61;100.00;96174.16;5028010;28;20041;-75
2022/06/12 00:18:39;;;;;;;11.50;6.22;;;;;;;11.60;100.00;96168.09;5027833;28;20289;-75
2022/06/12 00:21:12;;;;;;;9.38;5.78;;;;;;;11.65;100.00;96175.25;5023249;28;20454;-75
2022/06/12 00:23:47;;;;;;;12.82;5.88;;;;;;;11.63;100.00;96168.63;5027292;28;20037;-74
2022/06/12 00:26:16;;;;;;;9.57;5.88;;;;;;;11.56;100.00;96180.19;5027442;28;20045;-74
2022/06/12 00:28:41;;;;;;;9.40;6.00;;;;;;;11.58;100.00;96175.47;5026778;28;20033;-74
2022/06/12 00:31:07;;;;;;;13.07;6.68;;;;;;;11.55;100.00;96178.63;5026292;28;20044;-75
2022/06/12 00:33:33;;;;;;;12.18;6.65;;;;;;;11.49;100.00;96182.28;5028354;28;20045;-75
2022/06/12 00:35:58;;;;;;;10.18;6.10;;;;;;;11.46;100.00;96172.25;5027629;28;20048;-75
2022/06/12 00:38:24;;;;;;;9.90;6.25;;;;;;;11.37;100.00;96174.59;5024304;28;20121;-74
2022/06/12 00:40:50;;;;;;;13.70;6.13;;;;;;;11.33;100.00;96172.75;5027819;28;20537;-74
2022/06/12 00:43:16;;;;;;;8.63;6.10;;;;;;;11.33;100.00;96181.44;5020009;28;20046;-75
2022/06/12 00:45:47;;;;;;;9.40;6.15;;;;;;;11.32;100.00;96179.06;5026257;28;20144;-75
2022/06/12 00:48:18;;;;;;;8.65;5.72;;;;;;;11.33;100.00;96170.09;5021189;28;20041;-75
2022/06/12 00:51:08;;;;;;;9.95;6.30;;;;;;;11.27;100.00;96180.63;5024238;28;20087;-74
2022/06/12 00:53:49;;;;;;;12.10;6.47;;;;;;;11.22;100.00;96172.69;5028713;28;20044;-75
2022/06/12 00:56:23;;;;;;;13.27;6.32;;;;;;;11.18;100.00;96174.25;5031653;28;20183;-75
2022/06/12 00:59:08;;;;;;;10.35;6.57;;;;;;;11.14;100.00;96169.78;5030366;28;20736;-75
2022/06/12 01:01:39;;;;;;;11.90;6.93;;;;;;;11.04;100.00;96162.59;5042438;28;20048;-75
2022/06/12 01:06:53;;;;;;;13.40;6.65;;;;;;;11.08;100.00;96171.59;5030923;28;20492;-74
2022/06/12 01:09:25;;;;;;;13.05;7.35;;;;;;;11.06;100.00;96168.41;5029517;28;20056;-74
2022/06/12 01:11:53;;;;;;;12.38;6.72;;;;;;;11.06;100.00;96160.50;5017909;28;20066;-74
2022/06/12 01:14:25;;;;;;;13.20;7.30;;;;;;;11.07;100.00;96164.72;5029283;28;20064;-74
2022/06/12 01:16:53;;;;;;;12.13;6.35;;;;;;;11.04;100.00;96165.25;5031394;28;20049;-74
2022/06/12 01:19:32;;;;;;;8.98;6.07;;;;;;;11.02;100.00;96167.31;5024914;28;20056;-74
2022/06/12 01:22:26;;;;;;;16.80;6.68;;;;;;;10.99;100.00;96162.56;5030066;28;20072;-74
2022/06/12 01:25:09;;;;;;;13.70;6.93;;;;;;;10.94;100.00;96165.19;5028560;28;20129;-74
2022/06/12 01:28:02;;;;;;;11.88;6.60;;;;;;;10.94;100.00;96155.44;5030687;28;20631;-75
2022/06/12 01:30:41;;;;;;;12.35;6.80;;;;;;;10.89;100.00;96153.56;5007583;28;20494;-74
2022/06/12 01:33:25;;;;;;;12.05;7.07;;;;;;;10.79;100.00;96153.53;5029356;28;20053;-75
2022/06/12 01:36:13;;;;;;;14.65;6.85;;;;;;;10.88;100.00;96151.97;5030963;28;20056;-75
2022/06/12 01:39:01;;;;;;;13.35;6.88;;;;;;;10.78;100.00;96157.19;5026915;28;20037;-75
2022/06/12 01:41:52;;;;;;;10.20;6.90;;;;;;;10.83;100.00;96154.59;5030621;28;20518;-73
2022/06/12 01:44:39;;;;;;;12.48;6.95;;;;;;;10.76;100.00;96159.28;5028666;28;21165;-73
2022/06/12 01:47:22;;;;;;;11.90;6.65;;;;;;;10.76;100.00;96159.28;5025586;28;20108;-74
2022/06/12 01:50:09;;;;;;;10.80;6.40;;;;;;;10.63;100.00;96155.25;5029582;28;20511;-74
2022/06/12 01:52:59;;;;;;;12.23;6.15;;;;;;;10.63;100.00;96155.25;5027304;28;20042;-74
2022/06/12 01:55:31;;;;;;;12.70;7.18;;;;;;;10.63;100.00;96149.19;5027335;28;20772;-75
2022/06/12 01:58:18;;;;;;;11.70;7.00;;;;;;;10.62;100.00;96158.16;5021791;28;20049;-76
2022/06/12 02:00:55;;;;;;;11.15;6.75;;;;;;;10.73;100.00;96150.06;5024106;28;20053;-76
2022/06/12 02:03:29;;;;;;;11.88;7.00;;;;;;;10.71;100.00;96146.09;5030597;28;20053;-76
2022/06/12 02:06:18;;;;;;;13.50;6.22;;;;;;;10.62;100.00;96143.16;5029177;28;20407;-76
2022/06/12 02:08:51;;;;;;;13.75;7.00;;;;;;;10.48;100.00;96134.88;5028275;28;20045;-75
2022/06/12 02:14:16;;;;;;;13.75;6.60;;;;;;;10.50;100.00;96138.06;5025289;28;20077;-74
2022/06/12 02:16:47;;;;;;;10.98;6.65;;;;;;;10.45;100.00;96135.41;5016691;28;20046;-75
2022/06/12 02:19:22;;;;;;;13.55;6.10;;;;;;;10.48;100.00;96137.53;5025955;28;20044;-75
2022/06/12 02:22:02;;;;;;;11.68;6.70;;;;;;;10.58;100.00;96132.31;5019385;28;20407;-74
2022/06/12 02:24:37;;;;;;;9.50;6.22;;;;;;;10.61;100.00;96130.25;5029805;28;20041;-75
2022/06/12 02:27:06;;;;;;;12.85;6.35;;;;;;;10.52;100.00;96130.72;5029979;28;20033;-75
2022/06/12 02:29:36;;;;;;;9.30;6.15;;;;;;;10.38;100.00;96129.56;5026688;28;20037;-75
2022/06/12 02:32:08;;;;;;;11.20;6.55;;;;;;;10.36;100.00;96129.03;5018533;28;20050;-75
2022/06/12 02:34:38;;;;;;;12.25;6.53;;;;;;;10.39;100.00;96133.78;5029452;28;20045;-76
2022/06/12 02:37:10;;;;;;;12.20;6.82;;;;;;;10.37;100.00;96130.59;5028810;28;20037;-75
2022/06/12 02:39:48;;;;;;;11.15;6.90;;;;;;;10.42;100.00;96127.22;5026626;28;20037;-75
2022/06/12 02:42:21;;;;;;;10.00;6.55;;;;;;;10.39;100.00;96133.78;5029136;28;20507;-75
2022/06/12 02:45:05;;;;;;;10.07;6.53;;;;;;;10.43;100.00;96134.88;5027836;28;20817;-74
2022/06/12 02:47:34;;;;;;;11.32;6.45;;;;;;;10.46;100.00;96133.53;5024701;28;20052;-74
2022/06/12 02:50:01;;;;;;;11.45;6.47;;;;;;;10.36;100.00;96129.81;5029711;28;20045;-75
2022/06/12 02:52:53;;;;;;;13.18;6.70;;;;;;;10.31;100.00;96131.59;5025973;28;20043;-75
2022/06/12 02:55:56;;;;;;;13.75;7.55;;;;;;;10.22;100.00;96139.94;5029071;28;20045;-74
2022/06/12 02:58:37;;;;;;;12.50;6.70;;;;;;;10.20;100.00;96136.78;5025702;28;20049;-75
2022/06/12 03:01:13;;;;;;;9.27;6.10;;;;;;;10.24;100.00;96137.03;5021932;28;20522;-74
2022/06/12 03:03:44;;;;;;;12.30;6.40;;;;;;;10.21;100.00;96138.38;5022901;28;20069;-73
2022/06/12 03:06:11;;;;;;;10.93;6.35;;;;;;;10.17;100.00;96137.28;5022861;28;20053;-74
2022/06/12 03:08:42;;;;;;;13.02;6.80;;;;;;;10.11;100.00;96140.88;5024562;28;20046;-74
2022/06/12 03:11:20;;;;;;;12.07;6.53;;;;;;;10.14;100.00;96137.78;5025085;28;20034;-74
2022/06/12 03:13:47;;;;;;;11.95;7.00;;;;;;;10.08;100.00;96144.03;5026560;28;20401;-74
2022/06/12 03:16:24;;;;;;;10.68;6.95;;;;;;;10.08;100.00;96148.50;5028244;28;20041;-75
2022/06/12 03:19:03;;;;;;;11.52;6.72;;;;;;;10.09;100.00;96148.25;5028820;28;20045;-75
2022/06/12 03:21:55;;;;;;;12.20;6.47;;;;;;;10.11;100.00;96148.78;5020558;28;20120;-75
2022/06/12 03:24:52;;;;;;;11.13;6.32;;;;;;;10.07;100.00;96137.19;5024846;28;20060;-75
2022/06/12 03:27:32;;;;;;;9.18;5.85;;;;;;;10.17;100.00;96147.78;5029304;28;20041;-74
2022/06/12 03:29:58;;;;;;;9.60;6.28;;;;;;;10.12;100.00;96158.25;5024057;28;20050;-75
2022/06/12 03:32:37;;;;;;;10.45;6.38;;;;;;;10.06;100.00;96151.38;5027306;28;20053;-74
2022/06/12 03:35:52;;;;;;;13.50;6.95;;;;;;;10.03;100.00;96146.63;5028378;28;20046;-75
2022/06/12 03:38:43;;;;;;;10.27;6.38;;;;;;;9.97;100.00;96150.22;5021919;28;20050;-73
2022/06/12 03:41:33;;;;;;;12.63;6.78;;;;;;;9.96;100.00;96156.56;5026463;28;20049;-75
2022/06/12 03:44:22;;;;;;;13.95;6.85;;;;;;;10.00;100.00;96157.66;5028584;28;20045;-74
2022/06/12 03:47:00;;;;;;;11.88;7.20;;;;;;;10.06;100.00;96161.91;5019571;28;20384;-74
2022/06/12 03:49:35;;;;;;;13.60;7.03;;;;;;;10.08;100.00;96162.44;5024263;28;20041;-74
2022/06/12 03:52:14;;;;;;;12.40;7.22;;;;;;;10.10;100.00;96163.00;5025066;28;20042;-74
2022/06/12 03:54:55;;;;;;;12.10;7.05;;;;;;;10.17;100.00;96163.56;5027108;28;20037;-75
2022/06/12 04:00:18;;;;;;;14.95;8.07;;;;;;;10.26;100.00;96165.72;5025296;28;20064;-74
2022/06/12 04:02:47;;;;;;;10.55;6.50;;;;;;;10.31;100.00;96168.41;5025781;28;20089;-74
2022/06/12 04:05:24;;;;;;;10.93;6.43;;;;;;;10.33;100.00;96163.69;5028516;28;20045;-74
2022/06/12 04:07:54;;;;;;;12.60;6.38;;;;;;;10.34;100.00;96162.66;5017365;28;20049;-74
2022/06/12 04:10:24;;;;;;;9.52;6.22;;;;;;;10.46;100.00;96165.94;5023742;28;20069;-74
2022/06/12 04:12:50;;;;;;;13.23;7.30;;;;;;;10.47;100.00;96170.13;5022183;28;20126;-74
2022/06/12 04:15:22;;;;;;;10.93;6.70;;;;;;;10.46;100.00;96160.66;5028082;28;20045;-74
2022/06/12 04:17:48;;;;;;;13.60;7.10;;;;;;;10.51;100.00;96160.69;5027293;28;20065;-74
2022/06/12 04:20:22;;;;;;;13.30;6.13;;;;;;;10.68;100.00;96165.03;5028325;28;20666;-74
2022/06/12 04:22:58;;;;;;;9.27;6.10;;;;;;;10.76;100.00;96169.81;5020323;28;20596;-74
2022/06/12 04:25:38;;;;;;;10.30;6.20;;;;;;;10.82;100.00;96158.28;5028043;28;20084;-74
2022/06/12 04:28:21;;;;;;;10.07;6.53;;;;;;;10.84;100.00;96166.69;5029464;28;20053;-74
2022/06/12 04:30:46;;;;;;;10.38;6.72;;;;;;;10.92;100.00;96166.22;5031864;28;20531;-74
2022/06/12 04:33:29;;;;;;;10.70;6.63;;;;;;;11.04;100.00;96165.25;5028520;28;20052;-74
2022/06/12 04:35:58;;;;;;;13.15;6.68;;;;;;;11.09;100.00;96167.88;5031206;28;20204;-75
2022/06/12 04:38:25;;;;;;;9.52;6.47;;;;;;;11.17;100.00;96158.72;5029818;28;20038;-74
2022/06/12 04:40:52;;;;;;;9.43;6.30;;;;;;;11.25;100.00;96151.09;5031409;28;20056;-74
2022/06/12 04:43:18;;;;;;;12.50;6.47;;;;;;;11.37;100.00;96158.00;5033353;28;20049;-73
2022/06/12 04:45:44;;;;;;;8.68;6.20;;;;;;;11.43;100.00;96151.69;5031340;28;20061;-74
2022/06/12 04:48:19;;;;;;;9.38;6.45;;;;;;;11.55;100.00;96159.38;5031997;28;20562;-74
2022/06/12 04:50:45;;;;;;;11.73;6.63;;;;;;;11.59;100.00;96150.72;5025502;28;20389;-74
2022/06/12 04:53:11;;;;;;;9.35;6.35;;;;;;;11.67;100.00;96145.97;5030556;28;20060;-74
2022/06/12 04:55:36;;;;;;;9.65;6.00;;;;;;;11.78;100.00;96150.22;5030862;28;20407;-74
2022/06/12 04:58:04;;;;;;;10.98;6.30;;;;;;;11.85;100.00;96148.13;5023501;28;20081;-74
2022/06/12 05:00:29;;;;;;;12.20;6.28;;;;;;;11.91;100.00;96141.81;5025595;28;20045;-74
2022/06/12 05:02:55;;;;;;;11.23;6.07;;;;;;;12.01;100.00;96137.59;5029924;28;20087;-74
2022/06/12 05:05:20;;;;;;;9.80;6.38;;;;;;;12.09;100.00;96142.38;5030131;28;20045;-74
2022/06/12 05:07:46;;;;;;;12.05;6.65;;;;;;;12.29;100.00;96139.72;5030463;28;20033;-74
2022/06/12 05:10:14;;;;;;;9.25;6.47;;;;;;;12.35;100.00;96145.78;5029575;28;20113;-74
2022/06/12 05:12:40;;;;;;;10.35;6.28;;;;;;;12.47;100.00;96145.53;5027683;28;20029;-75
2022/06/12 05:15:07;;;;;;;9.98;5.97;;;;;;;12.72;100.00;96141.28;5028135;28;20461;-75
2022/06/12 05:17:32;;;;;;;14.10;6.00;;;;;;;12.89;100.00;96133.84;5030943;28;20113;-75
2022/06/12 05:19:59;;;;;;;8.90;5.70;;;;;;;13.17;100.00;96137.72;5030318;28;20602;-75
2022/06/12 05:22:25;;;;;;;9.85;5.40;;;;;;;13.52;100.00;96135.22;5028801;28;20128;-75
2022/06/12 05:24:51;;;;;;;7.88;4.55;;;;;;;13.93;100.00;96140.25;5025032;28;20057;-76
2022/06/12 05:27:20;;;;;;;12.70;5.50;;;;;;;14.28;100.00;96140.28;5023570;28;20124;-75
2022/06/12 05:29:46;;;;;;;8.52;5.25;;;;;;;14.49;100.00;96140.91;5029472;28;20049;-76
2022/06/12 05:32:14;;;;;;;11.73;4.90;;;;;;;14.91;100.00;96136.81;5026195;28;20060;-76
2022/06/12 05:34:40;;;;;;;7.78;5.40;;;;;;;15.00;100.00;96129.84;5028826;28;20037;-76
2022/06/12 05:37:06;;;;;;;8.35;4.70;;;;;;;15.25;100.00;96131.38;5029607;28;20048;-75
2022/06/12 05:39:33;;;;;;;9.90;4.95;;;;;;;15.42;100.00;96135.44;5029098;28;20033;-75
2022/06/12 05:41:58;;;;;;;8.10;5.00;;;;;;;15.56;97.21;96128.34;5029506;28;20061;-75
2022/06/12 05:44:24;;;;;;;8.27;4.85;;;;;;;15.77;95.70;96131.53;5037153;28;20133;-75
2022/06/12 05:46:50;;;;;;;7.93;5.07;;;;;;;15.80;96.36;96134.69;5021032;28;20042;-76
2022/06/12 05:49:16;;;;;;;7.40;4.63;;;;;;;16.04;93.42;96135.41;5029043;28;20095;-75
2022/06/12 05:51:42;;;;;;;9.50;4.90;;;;;;;16.19;95.84;96136.25;5024786;28;20103;-75
2022/06/12 05:54:07;;;;;;;7.95;4.97;;;;;;;16.24;95.21;96144.16;5027957;28;20531;-75
2022/06/12 05:56:33;;;;;;;8.93;5.00;;;;;;;16.08;97.90;96141.72;5029588;28;20076;-75
2022/06/12 05:58:59;;;;;;;8.30;4.70;;;;;;;16.08;96.99;96136.41;5028113;28;20404;-75
2022/06/12 06:01:26;;;;;;;5.78;4.05;;;;;;;16.64;87.93;96141.91;5024930;28;20111;-75
2022/06/12 06:03:53;;;;;;;6.55;4.57;;;;;;;16.94;86.38;96139.81;5026452;28;20048;-74
2022/06/12 06:06:25;;;;;;;7.20;4.68;;;;;;;17.18;84.15;96128.19;5028339;28;20042;-74
2022/06/12 06:08:51;;;;;;;7.30;4.35;;;;;;;17.16;85.88;96130.34;5025445;28;20570;-74
2022/06/12 06:11:17;;;;;;;6.95;4.53;;;;;;;17.23;88.68;96133.41;5026090;28;20045;-75
2022/06/12 06:13:42;;;;;;;7.78;4.72;;;;;;;17.30;89.31;96128.47;5027129;28;20037;-74
2022/06/12 06:16:08;;;;;;;8.00;4.53;;;;;;;17.47;84.14;96136.63;5020809;28;20030;-75
2022/06/12 06:18:37;;;;;;;9.00;4.50;;;;;;;17.58;85.49;96136.41;5028805;28;20041;-75
2022/06/12 06:21:03;;;;;;;8.38;4.90;;;;;;;17.42;90.56;96139.38;5027250;28;20044;-74
2022/06/12 06:23:28;;;;;;;9.98;5.10;;;;;;;17.66;85.79;96139.16;5029162;28;20049;-75
2022/06/12 06:25:54;;;;;;;6.85;4.70;;;;;;;17.68;85.74;96141.50;5031721;28;20072;-80
2022/06/12 06:28:19;;;;;;;8.55;4.78;;;;;;;17.91;85.12;96144.25;5027969;28;20513;-80
2022/06/12 06:30:45;;;;;;;8.05;4.75;;;;;;;18.10;83.62;96142.22;5017908;28;20191;-77
2022/06/12 06:33:11;;;;;;;7.90;4.63;;;;;;;18.20;84.96;96140.41;5022265;28;20453;-77
2022/06/12 06:35:38;;;;;;;7.50;4.30;;;;;;;18.46;80.35;96144.03;5035582;28;20041;-77
2022/06/12 06:38:04;;;;;;;9.43;4.43;;;;;;;18.40;82.20;96147.13;5030489;28;20095;-77
2022/06/12 06:40:31;;;;;;;8.35;4.80;;;;;;;18.49;82.33;96138.09;5030085;28;20048;-76
2022/06/12 06:42:57;;;;;;;7.90;4.95;;;;;;;18.62;83.50;96147.09;5027206;28;20046;-76
2022/06/12 06:48:10;;;;;;;7.93;4.82;;;;;;;18.92;77.03;96144.78;5022108;28;20060;-77
2022/06/12 06:50:37;;;;;;;7.88;4.70;;;;;;;19.07;77.56;96146.22;5024969;28;20042;-76
2022/06/12 06:53:03;;;;;;;9.35;4.50;;;;;;;19.20;76.78;96144.56;5030788;28;20068;-76
2022/06/12 06:55:30;;;;;;;7.93;4.22;;;;;;;19.11;76.51;96147.19;5041865;28;20029;-75
2022/06/12 06:57:57;;;;;;;7.85;5.15;;;;;;;19.15;76.62;96137.47;5054654;28;20037;-77
2022/06/12 07:00:28;;;;;;;7.78;4.40;;;;;;;18.95;77.49;96143.34;5054139;28;20021;-76
2022/06/12 07:02:54;;;;;;;6.70;4.68;;;;;;;19.09;83.60;96144.03;5052961;28;20029;-74
2022/06/12 07:05:20;;;;;;;7.20;4.70;;;;;;;18.89;80.82;96133.91;5057504;28;20067;-76
2022/06/12 07:07:46;;;;;;;6.00;4.55;;;;;;;18.96;77.65;96140.38;5046209;28;20021;-75
2022/06/12 07:10:21;;;;;;;7.28;4.65;;;;;;;19.01;75.44;96142.13;5055280;28;20022;-75
2022/06/12 07:12:48;;;;;;;8.82;4.47;;;;;;;19.42;72.46;96138.31;5055361;28;20045;-76
2022/06/12 07:15:14;;;;;;;10.43;4.93;;;;;;;19.71;74.36;96132.41;5046466;28;20104;-75
2022/06/12 07:17:41;;;;;;;6.82;4.47;;;;;;;19.72;71.60;96138.53;5056888;28;20037;-74
2022/06/12 07:20:10;;;;;;;6.85;4.55;;;;;;;19.80;78.27;96139.69;5053674;28;20033;-73
2022/06/12 07:22:36;;;;;;;8.20;4.40;;;;;;;19.55;79.69;96134.75;5057069;28;20037;-73
2022/06/12 07:25:02;;;;;;;7.88;4.70;;;;;;;19.40;82.17;96137.88;5056643;28;20046;-73
2022/06/12 07:27:27;;;;;;;8.10;4.70;;;;;;;19.23;82.92;96133.25;5042703;28;20052;-75
2022/06/12 07:29:52;;;;;;;6.43;4.45;;;;;;;19.34;79.60;96139.13;5029633;28;20053;-75
2022/06/12 07:32:18;;;;;;;7.78;4.60;;;;;;;19.37;82.07;96133.16;5032188;28;20673;-77
2022/06/12 07:34:43;;;;;;;7.07;4.80;;;;;;;19.32;81.07;96125.28;5030734;28;20045;-77
2022/06/12 07:37:09;;;;;;;6.75;4.78;;;;;;;19.91;74.28;96140.94;5030127;28;20064;-75
2022/06/12 07:39:35;;;;;;;9.27;4.57;;;;;;;20.24;72.26;96138.59;5023380;28;20502;-75
2022/06/12 07:42:01;;;;;;;8.02;4.78;;;;;;;20.46;71.26;96128.81;5029589;28;20049;-74
2022/06/12 07:44:31;;;;;;;7.15;4.60;;;;;;;20.67;66.06;96138.84;5028215;28;20048;-75
2022/06/12 07:46:58;;;;;;;7.57;4.28;;;;;;;20.67;66.60;96128.16;5029049;28;20045;-76
2022/06/12 07:49:25;;;;;;;9.00;4.57;;;;;;;20.80;64.17;96127.16;5029885;28;20380;-74
2022/06/12 07:51:52;;;;;;;11.57;4.20;;;;;;;20.99;61.08;96128.66;5028861;28;20415;-75
2022/06/12 07:54:19;;;;;;;8.40;4.50;;;;;;;20.98;57.51;96129.78;5031272;28;20059;-76
2022/06/12 07:56:45;;;;;;;6.45;4.03;;;;;;;20.74;59.90;96123.88;5027116;28;20114;-74
2022/06/12 07:59:10;;;;;;;7.97;4.10;;;;;;;20.37;65.22;96130.69;5027755;28;20046;-76
2022/06/12 08:01:37;;;;;;;6.25;4.00;;;;;;;20.88;57.61;96129.00;5027093;28;20041;-75
2022/06/12 08:04:04;;;;;;;6.65;4.15;;;;;;;21.16;56.59;96131.28;5027343;28;20064;-75
2022/06/12 08:06:30;;;;;;;8.70;4.22;;;;;;;20.93;57.93;96126.19;5030791;28;20048;-77
2022/06/12 08:08:57;;;;;;;6.25;4.10;;;;;;;21.05;52.29;96128.16;5042013;28;20049;-76
2022/06/12 08:11:24;;;;;;;7.88;4.57;;;;;;;21.15;56.54;96132.38;5031505;28;20045;-77
2022/06/12 08:13:50;;;;;;;6.88;4.28;;;;;;;21.41;54.16;96128.78;5033672;28;20045;-76
2022/06/12 08:16:16;;;;;;;7.28;3.88;;;;;;;21.20;58.15;96124.16;5032233;28;20563;-75
2022/06/12 08:18:42;;;;;;;6.95;4.22;;;;;;;20.84;54.63;96133.44;5032941;28;20084;-76
2022/06/12 08:21:11;;;;;;;7.10;4.00;;;;;;;20.79;53.73;96114.91;5031795;28;20049;-80
2022/06/12 08:23:43;;;;;;;7.85;3.90;;;;;;;20.81;54.36;96126.06;5033605;28;20056;-76
2022/06/12 08:26:14;;;;;;;8.38;3.97;;;;;;;21.11;52.64;96131.44;5036133;28;20430;-76
2022/06/12 08:29:05;;;;;;;6.90;4.25;;;;;;;21.63;50.47;96125.81;5034837;28;20430;-78
2022/06/12 08:31:35;;;;;;;8.57;3.92;;;;;;;21.66;54.37;96123.63;5032787;28;20046;-83
2022/06/12 08:34:05;;;;;;;4.85;3.63;;;;;;;21.33;56.61;96126.94;5031925;28;20034;-78
2022/06/12 08:36:32;;;;;;;7.53;3.92;;;;;;;21.06;56.67;96131.63;5030208;28;20428;-79
2022/06/12 08:38:57;;;;;;;8.07;3.90;;;;;;;21.15;52.97;96127.03;5032492;28;20042;-74
2022/06/12 08:41:36;;;;;;;5.35;3.80;;;;;;;21.60;52.56;96126.47;5028753;28;20046;-77
2022/06/12 08:44:34;;;;;;;5.95;3.67;;;;;;;21.32;52.83;96120.00;5030821;28;20100;-75
2022/06/12 08:47:19;;;;;;;6.25;3.30;;;;;;;21.83;51.41;96115.44;5011005;28;20091;-76
2022/06/12 08:49:53;;;;;;;7.15;3.50;;;;;;;22.24;50.25;96115.72;5032160;28;20045;-75
2022/06/12 08:52:27;;;;;;;6.68;3.65;;;;;;;22.10;52.69;96110.66;5028364;28;20045;-74
2022/06/12 08:55:12;;;;;;;6.35;3.85;;;;;;;21.99;53.99;96115.63;5018754;28;20045;-76
2022/06/12 08:57:47;;;;;;;6.20;3.70;;;;;;;22.41;50.98;96112.94;5034202;28;20116;-78
2022/06/12 09:00:23;;;;;;;6.20;3.80;;;;;;;22.17;52.39;96110.13;5026274;28;20041;-76
2022/06/12 09:02:49;;;;;;;7.68;3.35;;;;;;;22.03;50.50;96110.41;5029997;28;20565;-77
2022/06/12 09:05:20;;;;;;;5.40;3.40;;;;;;;21.96;48.23;96111.69;5033676;28;20045;-76
2022/06/12 09:08:08;;;;;;;4.97;3.22;;;;;;;21.94;49.50;96108.59;5033944;28;20041;-77
2022/06/12 09:10:51;;;;;;;4.53;3.17;;;;;;;22.21;46.53;96101.09;5015228;28;20046;-76
2022/06/12 09:13:27;;;;;;;6.28;3.45;;;;;;;22.15;49.30;96102.41;5026375;28;20048;-75
2022/06/12 09:15:53;;;;;;;4.97;3.30;;;;;;;22.05;45.80;96100.94;5034690;28;20041;-76
2022/06/12 09:18:31;;;;;;;5.75;3.40;;;;;;;22.09;46.11;96093.78;5030694;28;20447;-76
2022/06/12 09:21:23;;;;;;;5.82;3.28;;;;;;;22.21;45.16;96100.31;5024374;28;20030;-76
2022/06/12 09:24:26;;;;;;;5.53;3.00;;;;;;;22.11;42.46;96093.44;5020442;28;20586;-76
2022/06/12 09:27:17;;;;;;;10.40;2.83;;;;;;;22.05;45.77;96092.09;5019684;28;20096;-76
2022/06/12 09:29:58;;;;;;;6.32;3.45;;;;;;;22.06;48.13;96088.31;5032654;28;20052;-76
2022/06/12 09:32:28;;;;;;;5.20;3.20;;;;;;;22.17;49.17;96094.84;5032962;28;20049;-75
2022/06/12 09:35:38;;;;;;;9.43;3.40;;;;;;;22.53;47.95;96090.72;5027279;28;20525;-76
2022/06/12 09:38:19;;;;;;;6.65;3.22;;;;;;;22.64;45.35;96086.50;5019188;28;20057;-75
2022/06/12 09:40:59;;;;;;;5.15;3.20;;;;;;;22.66;43.52;96086.94;5024850;28;20045;-76
2022/06/12 09:43:57;;;;;;;6.75;3.10;;;;;;;23.13;44.81;96082.28;5019947;28;20049;-74
2022/06/12 09:46:34;;;;;;;5.30;2.83;;;;;;;23.38;46.33;96076.91;5025082;28;20038;-74
2022/06/12 09:49:10;;;;;;;3.85;2.90;;;;;;;23.49;39.77;96065.34;5031824;28;20382;-75
2022/06/12 09:52:06;;;;;;;5.75;3.00;;;;;;;23.30;41.70;96074.00;5023663;28;20041;-75
2022/06/12 09:54:46;;;;;;;9.75;2.90;;;;;;;23.50;41.54;96071.50;5017019;28;20064;-76
2022/06/12 09:57:20;;;;;;;3.53;2.70;;;;;;;23.41;42.14;96068.94;5032381;28;20511;-76
2022/06/12 09:59:54;;;;;;;3.92;2.80;;;;;;;23.37;43.31;96061.91;5044796;28;20037;-75
2022/06/12 10:02:31;;;;;;;5.82;3.10;;;;;;;23.37;39.29;96067.28;5030825;28;21672;-76
2022/06/12 10:05:09;;;;;;;5.38;2.70;;;;;;;23.51;41.74;96059.63;5032032;28;20045;-75
2022/06/12 10:07:48;;;;;;;5.75;2.70;;;;;;;23.49;38.41;96059.22;5027387;28;20038;-74
2022/06/12 10:10:39;;;;;;;4.85;2.60;;;;;;;23.94;35.66;96047.44;5017643;28;20049;-74
2022/06/12 10:13:10;;;;;;;5.40;2.80;;;;;;;24.25;37.61;96051.31;5027962;28;20559;-74
2022/06/12 10:15:41;;;;;;;4.97;2.50;;;;;;;24.16;35.41;96048.00;5020143;28;20038;-75
2022/06/12 10:18:24;;;;;;;4.43;2.58;;;;;;;24.20;36.19;96043.50;5032028;28;20057;-75
2022/06/12 10:21:00;;;;;;;4.10;2.40;;;;;;;24.38;36.92;96043.97;5032456;28;20033;-75
2022/06/12 10:23:26;;;;;;;5.03;2.50;;;;;;;24.53;35.82;96034.34;5023786;28;20045;-74
2022/06/12 10:25:56;;;;;;;4.43;2.60;;;;;;;25.11;36.54;96031.09;5030942;28;20498;-76
2022/06/12 10:28:42;;;;;;;5.40;2.65;;;;;;;25.49;37.22;96029.63;5031864;28;20042;-77
2022/06/12 10:31:10;;;;;;;4.47;2.30;;;;;;;25.60;35.02;96027.13;5040991;28;20662;-74
2022/06/12 10:33:42;;;;;;;4.07;2.33;;;;;;;25.77;36.78;96024.03;5028310;28;20041;-77
2022/06/12 10:36:23;;;;;;;3.05;2.30;;;;;;;25.99;35.33;96019.06;5031118;28;20038;-75
2022/06/12 10:38:49;;;;;;;5.70;2.50;;;;;;;26.13;34.36;96017.78;5032231;28;20038;-75
2022/06/12 10:41:26;;;;;;;3.20;2.20;;;;;;;26.28;31.50;96025.00;5028411;28;20052;-73
2022/06/12 10:43:53;;;;;;;4.18;2.38;;;;;;;26.36;29.25;96009.69;5024534;28;20056;-75
2022/06/12 10:46:24;;;;;;;3.28;2.22;;;;;;;26.95;32.32;96018.34;5030828;28;20072;-74
2022/06/12 10:49:15;;;;;;;4.00;2.70;;;;;;;27.81;29.17;96010.59;5030564;28;20045;-75
2022/06/12 10:51:41;;;;;;;4.25;2.45;;;;;;;27.23;28.31;96011.81;5019778;28;20042;-74
2022/06/12 10:54:13;;;;;;;5.15;2.60;;;;;;;27.69;28.47;96006.22;5014864;28;20045;-74
2022/06/12 10:56:46;;;;;;;3.72;2.55;;;;;;;28.03;31.12;96003.53;5028350;28;20063;-74
2022/06/12 10:59:35;;;;;;;4.57;2.63;;;;;;;28.68;27.64;95998.72;5026073;28;20315;-75
2022/06/12 11:02:06;;;;;;;4.82;2.58;;;;;;;28.64;29.20;95997.91;5032971;28;20064;-75
2022/06/12 11:05:05;;;;;;;3.03;2.30;;;;;;;29.10;28.45;95997.44;5017709;28;20045;-76
2022/06/12 11:08:00;;;;;;;3.67;2.45;;;;;;;29.68;26.46;95982.25;5004501;28;20104;-78
2022/06/12 11:10:29;;;;;;;4.03;2.40;;;;;;;30.42;25.84;95990.19;5019032;28;20067;-77
2022/06/12 11:13:00;;;;;;;4.53;2.40;;;;;;;30.66;26.18;95993.25;5029157;28;20132;-76
2022/06/12 11:15:59;;;;;;;3.70;2.50;;;;;;;29.59;27.16;95981.06;5032050;28;20057;-76
2022/06/12 11:18:47;;;;;;;4.20;2.70;;;;;;;30.11;26.94;95978.88;4999417;28;20662;-77
2022/06/12 11:22:03;;;;;;;4.28;2.58;;;;;;;29.94;27.35;95971.47;5026755;28;20042;-76
2022/06/12 11:24:43;;;;;;;5.15;2.58;;;;;;;30.12;26.43;95966.84;5009078;28;20451;-76
2022/06/12 11:27:12;;;;;;;4.85;2.70;;;;;;;29.68;27.13;95959.75;5031254;28;20045;-75
2022/06/12 11:30:08;;;;;;;3.78;2.67;;;;;;;29.89;27.35;95967.97;5024715;28;20508;-76
2022/06/12 11:32:38;;;;;;;4.85;2.88;;;;;;;30.19;28.12;95956.00;4991578;28;20073;-75
2022/06/12 11:35:54;;;;;;;3.80;2.40;;;;;;;30.13;28.18;95957.56;5028781;28;20454;-75
2022/06/12 11:38:31;;;;;;;4.40;2.50;;;;;;;30.97;27.93;95952.88;4991209;28;20050;-79
2022/06/12 11:41:20;;;;;;;3.47;2.50;;;;;;;32.28;24.34;95939.06;4993902;28;20074;-77
2022/06/12 11:44:18;;;;;;;4.28;2.60;;;;;;;31.71;25.89;95939.44;5016357;28;20049;-76
2022/06/12 11:47:02;;;;;;;4.30;2.67;;;;;;;30.83;27.48;95938.16;5018270;28;20058;-78
2022/06/12 11:49:35;;;;;;;;;;;;;;;31.23;26.51;95938.84;5031124;28;20120;-76
2022/06/12 11:52:16;;;;;;;4.15;2.80;;;;;;;31.02;27.47;95934.25;5031833;28;19928;-76
2022/06/12 11:55:17;;;;;;;3.35;2.33;;;;;;;32.69;23.11;95923.19;5024788;28;20096;-76
2022/06/12 11:58:00;;;;;;;5.55;2.80;;;;;;;30.66;25.62;95934.31;5025729;28;20049;-77
2022/06/12 12:00:47;;;;;;;4.50;2.75;;;;;;;30.90;26.71;95921.84;5029627;28;20137;-74
2022/06/12 12:03:38;;;;;;;4.85;2.40;;;;;;;31.63;24.64;95921.59;5023123;28;20380;-76
2022/06/12 12:06:23;;;;;;;4.80;2.70;;;;;;;31.43;26.04;95919.31;5030262;28;20057;-75
2022/06/12 12:09:06;;;;;;;4.60;2.80;;;;;;;31.31;26.44;95911.63;5021826;28;20041;-75
2022/06/12 12:11:43;;;;;;;3.72;2.50;;;;;;;31.87;26.39;95915.22;5028329;28;20037;-75